Tokuyo Maru No.15 — JD2184 — position and weather

sailwx.info

Track history (hours):
 
Tides and Currents Weather Stations Pressure Air Temp Water Temp Dewpoint Dewpoint Depression Visibility Wind Speed Wind Dir Waves Ship Positions

Tokuyo Maru No.15

Last reported at 2017-Nov-19 22:26 UTC. Time now 2017-Nov-22 11:19 UTC.
Position N 34°32' E 135°20'.

Length 66 m; draft 4.5 m.

Type: Tanker. MMSI: 431402034.

Date/timePositionNaut miles runAvg speedWind from/ knotsBaromVisibWave heightAir tempDewpointWater temp
2017-Nov-19 22:26N 34°32' E 135°20'0 0.0
2017-Nov-19 21:56N 34°32' E 135°20'0 0.0
2017-Nov-19 21:08N 34°32' E 135°20'0 0.0
2017-Nov-19 20:38N 34°32' E 135°20'0 0.0
2017-Nov-19 20:26N 34°32' E 135°20'0 0.0
2017-Nov-19 18:50N 34°32' E 135°20'0 0.0
2017-Nov-19 16:56N 34°32' E 135°20'0 0.0
2017-Nov-19 16:14N 34°32' E 135°20'0 0.0
2017-Nov-19 15:44N 34°32' E 135°20'0 0.0
2017-Nov-19 15:14N 34°32' E 135°20'0 0.0
2017-Nov-19 14:56N 34°32' E 135°20'0 0.0
2017-Nov-19 08:02N 34°32' E 135°20'0 0.1
2017-Nov-19 07:50N 34°32' E 135°20'0 0.0
2017-Nov-19 07:20N 34°32' E 135°20'0 0.0
2017-Nov-19 06:44N 34°32' E 135°20'0 0.0
2017-Nov-18 22:08N 34°32' E 135°20'0 0.0
2017-Nov-18 21:08N 34°32' E 135°20'0 0.0
2017-Nov-18 20:56N 34°32' E 135°20'0 0.0
2017-Nov-18 20:02N 34°32' E 135°20'0 0.0
2017-Nov-18 19:56N 34°32' E 135°20'0 0.0
2017-Nov-18 19:26N 34°32' E 135°20'0 0.0
2017-Nov-18 18:56N 34°32' E 135°20'0 0.0
2017-Nov-18 18:26N 34°32' E 135°20'0 0.0
2017-Nov-18 17:56N 34°32' E 135°20'0 0.0
2017-Nov-18 17:26N 34°32' E 135°20'0 0.0
2017-Nov-18 02:08N 34°32' E 135°20'0 0.1
2017-Nov-18 01:46N 34°32' E 135°20'0 1.6
2017-Nov-18 01:30N 34°32' E 135°20'4 1.2
2017-Nov-17 22:27N 34°33' E 135°24'4 8.7
2017-Nov-17 22:00N 34°32' E 135°20'0 0.1
2017-Nov-17 21:30N 34°32' E 135°20'0 0.0
2017-Nov-17 18:52N 34°32' E 135°20'0 0.0
2017-Nov-17 18:28N 34°32' E 135°20'0 0.0
2017-Nov-17 16:52N 34°32' E 135°20'0 0.0
2017-Nov-17 16:22N 34°32' E 135°20'0 0.0
2017-Nov-17 15:58N 34°32' E 135°20'0 0.0
2017-Nov-17 14:46N 34°32' E 135°20'0 0.0
2017-Nov-17 14:10N 34°32' E 135°20'0 0.0
2017-Nov-17 13:58N 34°32' E 135°20'0 0.0
2017-Nov-17 12:46N 34°32' E 135°20'0 0.0
2017-Nov-17 02:18N 34°32' E 135°20'3 8.9
2017-Nov-17 02:00N 34°31' E 135°17'612.2
2017-Nov-17 01:30N 34°27' E 135°11'1611.5
2017-Nov-17 00:07N 34°15' E 134°59'213.1
2017-Nov-16 23:59N 34°13' E 134°60'612.7
2017-Nov-16 23:29N 34°07' E 135°00'1 0.0
2017-Nov-15 06:32N 34°06' E 134°59'012.3
2017-Nov-15 06:30N 34°06' E 134°59'713.1
2017-Nov-15 06:00N 34°13' E 134°59'1911.3
2017-Nov-15 04:18N 34°28' E 135°13'312.0
2017-Nov-15 04:00N 34°30' E 135°17'611.8
2017-Nov-15 03:30N 34°33' E 135°23'2 0.5
2017-Nov-14 23:30N 34°32' E 135°25'1 0.6
2017-Nov-14 22:36N 34°33' E 135°25'0 1.6
2017-Nov-14 22:30N 34°33' E 135°25'4 8.0
2017-Nov-14 22:00N 34°33' E 135°20'1 1.8
2017-Nov-14 21:30N 34°32' E 135°19'510.9
2017-Nov-14 21:01N 34°29' E 135°14'611.9
2017-Nov-14 20:30N 34°26' E 135°08'1311.4
2017-Nov-14 19:21N 34°15' E 134°60'511.3
2017-Nov-14 18:57N 34°10' E 135°00'228 5.6
2017-Nov-13 01:56N 35°01' E 139°30'512.0
2017-Nov-13 01:30N 35°04' E 139°35'612.7
2017-Nov-13 01:00N 35°07' E 139°42'612.9
2017-Nov-13 00:31N 35°12' E 139°46'612.0
2017-Nov-13 00:00N 35°18' E 139°44'611.7
2017-Nov-12 23:30N 35°24' E 139°43'612.4
2017-Nov-12 23:00N 35°28' E 139°48'5 0.3
2017-Nov-12 04:56N 35°29' E 139°55'0 0.0
2017-Nov-11 21:41N 35°29' E 139°54'0 0.2
2017-Nov-11 21:29N 35°29' E 139°54'0 0.0
2017-Nov-11 20:10N 35°29' E 139°54'0 0.0
2017-Nov-11 19:55N 35°29' E 139°54'0 0.0
2017-Nov-11 19:25N 35°29' E 139°54'0 0.0
2017-Nov-11 18:58N 35°29' E 139°54'0 0.0
2017-Nov-11 18:28N 35°29' E 139°54'0 0.0
2017-Nov-11 17:10N 35°29' E 139°54'0 0.0
2017-Nov-11 16:55N 35°29' E 139°54'0 0.0
2017-Nov-11 15:22N 35°29' E 139°54'0 0.0
2017-Nov-11 14:55N 35°29' E 139°54'0 0.0
2017-Nov-11 14:10N 35°29' E 139°54'0 0.0
2017-Nov-11 13:58N 35°29' E 139°54'2 4.8
2017-Nov-11 13:28N 35°28' E 139°51'511.6
2017-Nov-11 13:00N 35°25' E 139°47'611.5
2017-Nov-11 12:30N 35°19' E 139°44'611.2
2017-Nov-11 12:00N 35°14' E 139°47'611.4
2017-Nov-11 11:30N 35°09' E 139°46'510.9
2017-Nov-11 11:00N 35°05' E 139°41'510.6
2017-Nov-11 10:30N 35°02' E 139°36'23510.0
2017-Nov-10 10:58N 34°05' E 134°60'712.0
2017-Nov-10 10:21N 34°13' E 134°59'13 2.7
2017-Nov-10 05:22N 34°23' E 135°09'7 8.0
2017-Nov-10 04:29N 34°29' E 135°14'611.4
2017-Nov-10 04:00N 34°32' E 135°19'5 1.0
2017-Nov-09 23:00N 34°32' E 135°25'1 1.6
2017-Nov-09 22:30N 34°33' E 135°25'  
Track history (hours):
 
Tides and Currents Weather Stations Pressure Air Temp Water Temp Dewpoint Dewpoint Depression Visibility Wind Speed Wind Dir Waves Ship Positions

Tokuyo Maru No.15

Last reported at 2017-Nov-19 22:26 UTC. Time now 2017-Nov-22 11:19 UTC.
Position N 34°32' E 135°20'.

Length 66 m; draft 4.5 m.

Type: Tanker. MMSI: 431402034.

Date/timePositionNaut miles runAvg speedWind from/ knotsBaromVisibWave heightAir tempDewpointWater temp
2017-Nov-19 22:26N 34°32' E 135°20'0 0.0
2017-Nov-19 21:56N 34°32' E 135°20'0 0.0
2017-Nov-19 21:08N 34°32' E 135°20'0 0.0
2017-Nov-19 20:38N 34°32' E 135°20'0 0.0
2017-Nov-19 20:26N 34°32' E 135°20'0 0.0
2017-Nov-19 18:50N 34°32' E 135°20'0 0.0
2017-Nov-19 16:56N 34°32' E 135°20'0 0.0
2017-Nov-19 16:14N 34°32' E 135°20'0 0.0
2017-Nov-19 15:44N 34°32' E 135°20'0 0.0
2017-Nov-19 15:14N 34°32' E 135°20'0 0.0
2017-Nov-19 14:56N 34°32' E 135°20'0 0.0
2017-Nov-19 08:02N 34°32' E 135°20'0 0.1
2017-Nov-19 07:50N 34°32' E 135°20'0 0.0
2017-Nov-19 07:20N 34°32' E 135°20'0 0.0
2017-Nov-19 06:44N 34°32' E 135°20'0 0.0
2017-Nov-18 22:08N 34°32' E 135°20'0 0.0
2017-Nov-18 21:08N 34°32' E 135°20'0 0.0
2017-Nov-18 20:56N 34°32' E 135°20'0 0.0
2017-Nov-18 20:02N 34°32' E 135°20'0 0.0
2017-Nov-18 19:56N 34°32' E 135°20'0 0.0
2017-Nov-18 19:26N 34°32' E 135°20'0 0.0
2017-Nov-18 18:56N 34°32' E 135°20'0 0.0
2017-Nov-18 18:26N 34°32' E 135°20'0 0.0
2017-Nov-18 17:56N 34°32' E 135°20'0 0.0
2017-Nov-18 17:26N 34°32' E 135°20'0 0.0
2017-Nov-18 02:08N 34°32' E 135°20'0 0.1
2017-Nov-18 01:46N 34°32' E 135°20'0 1.6
2017-Nov-18 01:30N 34°32' E 135°20'4 1.2
2017-Nov-17 22:27N 34°33' E 135°24'4 8.7
2017-Nov-17 22:00N 34°32' E 135°20'0 0.1
2017-Nov-17 21:30N 34°32' E 135°20'0 0.0
2017-Nov-17 18:52N 34°32' E 135°20'0 0.0
2017-Nov-17 18:28N 34°32' E 135°20'0 0.0
2017-Nov-17 16:52N 34°32' E 135°20'0 0.0
2017-Nov-17 16:22N 34°32' E 135°20'0 0.0
2017-Nov-17 15:58N 34°32' E 135°20'0 0.0
2017-Nov-17 14:46N 34°32' E 135°20'0 0.0
2017-Nov-17 14:10N 34°32' E 135°20'0 0.0
2017-Nov-17 13:58N 34°32' E 135°20'0 0.0
2017-Nov-17 12:46N 34°32' E 135°20'0 0.0
2017-Nov-17 02:18N 34°32' E 135°20'3 8.9
2017-Nov-17 02:00N 34°31' E 135°17'612.2
2017-Nov-17 01:30N 34°27' E 135°11'1611.5
2017-Nov-17 00:07N 34°15' E 134°59'213.1
2017-Nov-16 23:59N 34°13' E 134°60'612.7
2017-Nov-16 23:29N 34°07' E 135°00'1 0.0
2017-Nov-15 06:32N 34°06' E 134°59'012.3
2017-Nov-15 06:30N 34°06' E 134°59'713.1
2017-Nov-15 06:00N 34°13' E 134°59'1911.3
2017-Nov-15 04:18N 34°28' E 135°13'312.0
2017-Nov-15 04:00N 34°30' E 135°17'611.8
2017-Nov-15 03:30N 34°33' E 135°23'2 0.5
2017-Nov-14 23:30N 34°32' E 135°25'1 0.6
2017-Nov-14 22:36N 34°33' E 135°25'0 1.6
2017-Nov-14 22:30N 34°33' E 135°25'4 8.0
2017-Nov-14 22:00N 34°33' E 135°20'1 1.8
2017-Nov-14 21:30N 34°32' E 135°19'510.9
2017-Nov-14 21:01N 34°29' E 135°14'611.9
2017-Nov-14 20:30N 34°26' E 135°08'1311.4
2017-Nov-14 19:21N 34°15' E 134°60'511.3
2017-Nov-14 18:57N 34°10' E 135°00'228 5.6
2017-Nov-13 01:56N 35°01' E 139°30'512.0
2017-Nov-13 01:30N 35°04' E 139°35'612.7
2017-Nov-13 01:00N 35°07' E 139°42'612.9
2017-Nov-13 00:31N 35°12' E 139°46'612.0
2017-Nov-13 00:00N 35°18' E 139°44'611.7
2017-Nov-12 23:30N 35°24' E 139°43'612.4
2017-Nov-12 23:00N 35°28' E 139°48'5 0.3
2017-Nov-12 04:56N 35°29' E 139°55'0 0.0
2017-Nov-11 21:41N 35°29' E 139°54'0 0.2
2017-Nov-11 21:29N 35°29' E 139°54'0 0.0
2017-Nov-11 20:10N 35°29' E 139°54'0 0.0
2017-Nov-11 19:55N 35°29' E 139°54'0 0.0
2017-Nov-11 19:25N 35°29' E 139°54'0 0.0
2017-Nov-11 18:58N 35°29' E 139°54'0 0.0
2017-Nov-11 18:28N 35°29' E 139°54'0 0.0
2017-Nov-11 17:10N 35°29' E 139°54'0 0.0
2017-Nov-11 16:55N 35°29' E 139°54'0 0.0
2017-Nov-11 15:22N 35°29' E 139°54'0 0.0
2017-Nov-11 14:55N 35°29' E 139°54'0 0.0
2017-Nov-11 14:10N 35°29' E 139°54'0 0.0
2017-Nov-11 13:58N 35°29' E 139°54'2 4.8
2017-Nov-11 13:28N 35°28' E 139°51'511.6
2017-Nov-11 13:00N 35°25' E 139°47'611.5
2017-Nov-11 12:30N 35°19' E 139°44'611.2
2017-Nov-11 12:00N 35°14' E 139°47'611.4
2017-Nov-11 11:30N 35°09' E 139°46'510.9
2017-Nov-11 11:00N 35°05' E 139°41'510.6
2017-Nov-11 10:30N 35°02' E 139°36'23510.0
2017-Nov-10 10:58N 34°05' E 134°60'712.0
2017-Nov-10 10:21N 34°13' E 134°59'13 2.7
2017-Nov-10 05:22N 34°23' E 135°09'7 8.0
2017-Nov-10 04:29N 34°29' E 135°14'611.4
2017-Nov-10 04:00N 34°32' E 135°19'5 1.0
2017-Nov-09 23:00N 34°32' E 135°25'1 1.6
2017-Nov-09 22:30N 34°33' E 135°25'  

Dump ship's entire track history